<?xml version="1.0" encoding="UTF-8" standalone="no" ?>
<gpx xmlns="http://www.topografix.com/GPX/1/1" xmlns:xsi="http://www.w3.org/2001/XMLSchema-instance" xsi:schemaLocation="http://www.topografix.com/GPX/1/1 http://www.topografix.com/GPX/1/1/gpx.xsd" version="1.1" creator="VisuGPX - https://www.visugpx.com">
  <metadata>
    <name>Puymirol8.4 km</name>
  </metadata>
  <trk>
    <name><![CDATA[2025 03 23 Puymirol Pierre 8]]></name>
    <extensions>
      <line xmlns="http://www.topografix.com/GPX/gpx_style/0/2">
        <color>0000FF</color>
        <width>4</width>
      </line>
    </extensions>
    <trkseg>
      <trkpt lat="44.18478" lon="0.78872">
        <ele>72.7</ele>
        <time>2025-03-23T13:12:38.181Z</time>
      </trkpt>
      <trkpt lat="44.18507" lon="0.78869">
        <ele>72.3</ele>
        <time>2025-03-23T13:12:41.181Z</time>
      </trkpt>
      <trkpt lat="44.1852" lon="0.78879">
        <ele>72.7</ele>
        <time>2025-03-23T13:12:42.181Z</time>
      </trkpt>
      <trkpt lat="44.18523" lon="0.78883">
        <ele>72.8</ele>
        <time>2025-03-23T13:12:43.181Z</time>
      </trkpt>
      <trkpt lat="44.18521" lon="0.78886">
        <ele>72.9</ele>
        <time>2025-03-23T13:12:45.181Z</time>
      </trkpt>
      <trkpt lat="44.18534" lon="0.78893">
        <ele>73.2</ele>
        <time>2025-03-23T13:12:51.181Z</time>
      </trkpt>
      <trkpt lat="44.18527" lon="0.78892">
        <ele>73.1</ele>
        <time>2025-03-23T13:12:55.181Z</time>
      </trkpt>
      <trkpt lat="44.18522" lon="0.78895">
        <ele>73.2</ele>
        <time>2025-03-23T13:12:59.181Z</time>
      </trkpt>
      <trkpt lat="44.18514" lon="0.78905">
        <ele>73.9</ele>
        <time>2025-03-23T13:13:09.181Z</time>
      </trkpt>
      <trkpt lat="44.18513" lon="0.78909">
        <ele>74.1</ele>
        <time>2025-03-23T13:13:11.181Z</time>
      </trkpt>
      <trkpt lat="44.18506" lon="0.78911">
        <ele>74.4</ele>
        <time>2025-03-23T13:13:15.181Z</time>
      </trkpt>
      <trkpt lat="44.18503" lon="0.78914">
        <ele>74.7</ele>
        <time>2025-03-23T13:13:19.181Z</time>
      </trkpt>
      <trkpt lat="44.18503" lon="0.78917">
        <ele>74.9</ele>
        <time>2025-03-23T13:13:23.181Z</time>
      </trkpt>
      <trkpt lat="44.1851" lon="0.78923">
        <ele>74.7</ele>
        <time>2025-03-23T13:13:29.181Z</time>
      </trkpt>
      <trkpt lat="44.18514" lon="0.78926">
        <ele>74.7</ele>
        <time>2025-03-23T13:13:45.181Z</time>
      </trkpt>
      <trkpt lat="44.18515" lon="0.78925">
        <ele>74.6</ele>
        <time>2025-03-23T13:13:47.181Z</time>
      </trkpt>
      <trkpt lat="44.18519" lon="0.78925">
        <ele>74.5</ele>
        <time>2025-03-23T13:13:51.181Z</time>
      </trkpt>
      <trkpt lat="44.18522" lon="0.78928">
        <ele>74.5</ele>
        <time>2025-03-23T13:13:55.181Z</time>
      </trkpt>
      <trkpt lat="44.18526" lon="0.78928">
        <ele>74.5</ele>
        <time>2025-03-23T13:13:59.181Z</time>
      </trkpt>
      <trkpt lat="44.1853" lon="0.78932">
        <ele>74.5</ele>
        <time>2025-03-23T13:14:15.181Z</time>
      </trkpt>
      <trkpt lat="44.18539" lon="0.78935">
        <ele>74.7</ele>
        <time>2025-03-23T13:14:21.181Z</time>
      </trkpt>
      <trkpt lat="44.18542" lon="0.78934">
        <ele>74.6</ele>
        <time>2025-03-23T13:14:23.181Z</time>
      </trkpt>
      <trkpt lat="44.18566" lon="0.78942">
        <ele>76</ele>
        <time>2025-03-23T13:14:43.181Z</time>
      </trkpt>
      <trkpt lat="44.18568" lon="0.78945">
        <ele>76.3</ele>
        <time>2025-03-23T13:16:15.181Z</time>
      </trkpt>
      <trkpt lat="44.18571" lon="0.78965">
        <ele>76.6</ele>
        <time>2025-03-23T13:17:09.181Z</time>
      </trkpt>
      <trkpt lat="44.18584" lon="0.7898">
        <ele>78.1</ele>
        <time>2025-03-23T13:17:25.181Z</time>
      </trkpt>
      <trkpt lat="44.18585" lon="0.78988">
        <ele>78.3</ele>
        <time>2025-03-23T13:17:33.181Z</time>
      </trkpt>
      <trkpt lat="44.18582" lon="0.78999">
        <ele>77.9</ele>
        <time>2025-03-23T13:17:41.181Z</time>
      </trkpt>
      <trkpt lat="44.18576" lon="0.79009">
        <ele>78.5</ele>
        <time>2025-03-23T13:17:49.181Z</time>
      </trkpt>
      <trkpt lat="44.18562" lon="0.79025">
        <ele>78.1</ele>
        <time>2025-03-23T13:18:05.181Z</time>
      </trkpt>
      <trkpt lat="44.18551" lon="0.79041">
        <ele>80.4</ele>
        <time>2025-03-23T13:18:37.181Z</time>
      </trkpt>
      <trkpt lat="44.18551" lon="0.79045">
        <ele>81.7</ele>
        <time>2025-03-23T13:18:53.181Z</time>
      </trkpt>
      <trkpt lat="44.18547" lon="0.79056">
        <ele>83.6</ele>
        <time>2025-03-23T13:19:01.181Z</time>
      </trkpt>
      <trkpt lat="44.18543" lon="0.79063">
        <ele>83.7</ele>
        <time>2025-03-23T13:19:09.181Z</time>
      </trkpt>
      <trkpt lat="44.18527" lon="0.79079">
        <ele>82.9</ele>
        <time>2025-03-23T13:19:25.181Z</time>
      </trkpt>
      <trkpt lat="44.18523" lon="0.79087">
        <ele>83.1</ele>
        <time>2025-03-23T13:19:33.181Z</time>
      </trkpt>
      <trkpt lat="44.18525" lon="0.79091">
        <ele>83.7</ele>
        <time>2025-03-23T13:19:41.181Z</time>
      </trkpt>
      <trkpt lat="44.18524" lon="0.79098">
        <ele>84.1</ele>
        <time>2025-03-23T13:19:49.181Z</time>
      </trkpt>
      <trkpt lat="44.18527" lon="0.79116">
        <ele>86.5</ele>
        <time>2025-03-23T13:20:05.181Z</time>
      </trkpt>
      <trkpt lat="44.18527" lon="0.79129">
        <ele>88.2</ele>
        <time>2025-03-23T13:20:17.181Z</time>
      </trkpt>
      <trkpt lat="44.18524" lon="0.79139">
        <ele>88.8</ele>
        <time>2025-03-23T13:20:25.181Z</time>
      </trkpt>
      <trkpt lat="44.18525" lon="0.79154">
        <ele>90.7</ele>
        <time>2025-03-23T13:20:37.181Z</time>
      </trkpt>
      <trkpt lat="44.18527" lon="0.79158">
        <ele>91.9</ele>
        <time>2025-03-23T13:20:41.181Z</time>
      </trkpt>
      <trkpt lat="44.18527" lon="0.79164">
        <ele>92.5</ele>
        <time>2025-03-23T13:20:45.181Z</time>
      </trkpt>
      <trkpt lat="44.18531" lon="0.79176">
        <ele>94.7</ele>
        <time>2025-03-23T13:20:53.181Z</time>
      </trkpt>
      <trkpt lat="44.18529" lon="0.79182">
        <ele>94.4</ele>
        <time>2025-03-23T13:21:09.181Z</time>
      </trkpt>
      <trkpt lat="44.1853" lon="0.79205">
        <ele>96.8</ele>
        <time>2025-03-23T13:21:33.181Z</time>
      </trkpt>
      <trkpt lat="44.18532" lon="0.79225">
        <ele>100</ele>
        <time>2025-03-23T13:21:49.181Z</time>
      </trkpt>
      <trkpt lat="44.18527" lon="0.79284">
        <ele>105.8</ele>
        <time>2025-03-23T13:22:53.181Z</time>
      </trkpt>
      <trkpt lat="44.18528" lon="0.79289">
        <ele>107.1</ele>
        <time>2025-03-23T13:22:57.181Z</time>
      </trkpt>
      <trkpt lat="44.18525" lon="0.79303">
        <ele>108.5</ele>
        <time>2025-03-23T13:23:07.181Z</time>
      </trkpt>
      <trkpt lat="44.18526" lon="0.79308">
        <ele>109.8</ele>
        <time>2025-03-23T13:23:11.181Z</time>
      </trkpt>
      <trkpt lat="44.18527" lon="0.79316">
        <ele>111.1</ele>
        <time>2025-03-23T13:23:19.181Z</time>
      </trkpt>
      <trkpt lat="44.18524" lon="0.79321">
        <ele>111.1</ele>
        <time>2025-03-23T13:23:23.181Z</time>
      </trkpt>
      <trkpt lat="44.18525" lon="0.79325">
        <ele>111.7</ele>
        <time>2025-03-23T13:23:27.181Z</time>
      </trkpt>
      <trkpt lat="44.18526" lon="0.79327">
        <ele>112.6</ele>
        <time>2025-03-23T13:23:29.181Z</time>
      </trkpt>
      <trkpt lat="44.18525" lon="0.79345">
        <ele>113.9</ele>
        <time>2025-03-23T13:23:45.181Z</time>
      </trkpt>
      <trkpt lat="44.18525" lon="0.79361">
        <ele>115.2</ele>
        <time>2025-03-23T13:24:01.181Z</time>
      </trkpt>
      <trkpt lat="44.18533" lon="0.79372">
        <ele>118</ele>
        <time>2025-03-23T13:24:11.181Z</time>
      </trkpt>
      <trkpt lat="44.18528" lon="0.79388">
        <ele>117.2</ele>
        <time>2025-03-23T13:24:59.181Z</time>
      </trkpt>
      <trkpt lat="44.18532" lon="0.79394">
        <ele>118.6</ele>
        <time>2025-03-23T13:25:07.181Z</time>
      </trkpt>
      <trkpt lat="44.18533" lon="0.79415">
        <ele>120.2</ele>
        <time>2025-03-23T13:25:23.181Z</time>
      </trkpt>
      <trkpt lat="44.18536" lon="0.79429">
        <ele>122.4</ele>
        <time>2025-03-23T13:25:35.181Z</time>
      </trkpt>
      <trkpt lat="44.1854" lon="0.79437">
        <ele>124.6</ele>
        <time>2025-03-23T13:25:43.181Z</time>
      </trkpt>
      <trkpt lat="44.18544" lon="0.79454">
        <ele>126.9</ele>
        <time>2025-03-23T13:25:59.181Z</time>
      </trkpt>
      <trkpt lat="44.18543" lon="0.79457">
        <ele>126.8</ele>
        <time>2025-03-23T13:26:03.181Z</time>
      </trkpt>
      <trkpt lat="44.18547" lon="0.79462">
        <ele>128.5</ele>
        <time>2025-03-23T13:26:07.181Z</time>
      </trkpt>
      <trkpt lat="44.18552" lon="0.79478">
        <ele>131.4</ele>
        <time>2025-03-23T13:26:23.181Z</time>
      </trkpt>
      <trkpt lat="44.18557" lon="0.79497">
        <ele>132.6</ele>
        <time>2025-03-23T13:26:39.181Z</time>
      </trkpt>
      <trkpt lat="44.18559" lon="0.79501">
        <ele>133.9</ele>
        <time>2025-03-23T13:26:47.181Z</time>
      </trkpt>
      <trkpt lat="44.1856" lon="0.7951">
        <ele>134.3</ele>
        <time>2025-03-23T13:26:55.181Z</time>
      </trkpt>
      <trkpt lat="44.18565" lon="0.79521">
        <ele>137</ele>
        <time>2025-03-23T13:27:03.181Z</time>
      </trkpt>
      <trkpt lat="44.18566" lon="0.79566">
        <ele>137.7</ele>
        <time>2025-03-23T13:27:43.181Z</time>
      </trkpt>
      <trkpt lat="44.18566" lon="0.79583">
        <ele>138.3</ele>
      </trkpt>
      <trkpt lat="44.18567" lon="0.79588">
        <ele>138.6</ele>
        <time>2025-03-23T13:28:59.181Z</time>
      </trkpt>
      <trkpt lat="44.18568" lon="0.79586">
        <ele>139.1</ele>
        <time>2025-03-23T13:30:43.181Z</time>
      </trkpt>
      <trkpt lat="44.18568" lon="0.79575">
        <ele>139.1</ele>
        <time>2025-03-23T13:31:39.181Z</time>
      </trkpt>
      <trkpt lat="44.18568" lon="0.79552">
        <ele>138.4</ele>
        <time>2025-03-23T13:31:55.181Z</time>
      </trkpt>
      <trkpt lat="44.18568" lon="0.79528">
        <ele>139</ele>
        <time>2025-03-23T13:32:11.181Z</time>
      </trkpt>
      <trkpt lat="44.18567" lon="0.795">
        <ele>137.8</ele>
        <time>2025-03-23T13:32:27.181Z</time>
      </trkpt>
      <trkpt lat="44.18571" lon="0.79473">
        <ele>139.7</ele>
        <time>2025-03-23T13:32:47.181Z</time>
      </trkpt>
      <trkpt lat="44.18571" lon="0.79466">
        <ele>139.6</ele>
        <time>2025-03-23T13:32:51.181Z</time>
      </trkpt>
      <trkpt lat="44.18574" lon="0.79444">
        <ele>142.4</ele>
        <time>2025-03-23T13:33:07.181Z</time>
      </trkpt>
      <trkpt lat="44.18573" lon="0.79425">
        <ele>140.4</ele>
        <time>2025-03-23T13:33:23.181Z</time>
      </trkpt>
      <trkpt lat="44.18569" lon="0.79412">
        <ele>137.2</ele>
        <time>2025-03-23T13:33:31.181Z</time>
      </trkpt>
      <trkpt lat="44.18576" lon="0.79397">
        <ele>138.4</ele>
        <time>2025-03-23T13:33:43.181Z</time>
      </trkpt>
      <trkpt lat="44.18575" lon="0.79391">
        <ele>137.2</ele>
        <time>2025-03-23T13:33:47.181Z</time>
      </trkpt>
      <trkpt lat="44.18576" lon="0.79388">
        <ele>137.2</ele>
        <time>2025-03-23T13:33:51.181Z</time>
      </trkpt>
      <trkpt lat="44.18578" lon="0.79387">
        <ele>137.4</ele>
        <time>2025-03-23T13:34:07.181Z</time>
      </trkpt>
      <trkpt lat="44.18578" lon="0.79368">
        <ele>132.6</ele>
        <time>2025-03-23T13:34:23.181Z</time>
      </trkpt>
      <trkpt lat="44.18581" lon="0.79359">
        <ele>131.2</ele>
        <time>2025-03-23T13:34:31.181Z</time>
      </trkpt>
      <trkpt lat="44.18581" lon="0.7935">
        <ele>130.4</ele>
        <time>2025-03-23T13:34:39.181Z</time>
      </trkpt>
      <trkpt lat="44.18589" lon="0.79308">
        <ele>133.4</ele>
        <time>2025-03-23T13:35:09.181Z</time>
      </trkpt>
      <trkpt lat="44.18592" lon="0.79304">
        <ele>134.8</ele>
        <time>2025-03-23T13:35:13.181Z</time>
      </trkpt>
      <trkpt lat="44.18595" lon="0.79279">
        <ele>133.9</ele>
        <time>2025-03-23T13:35:37.181Z</time>
      </trkpt>
      <trkpt lat="44.18594" lon="0.79276">
        <ele>133.1</ele>
        <time>2025-03-23T13:35:39.181Z</time>
      </trkpt>
      <trkpt lat="44.18596" lon="0.79271">
        <ele>133.8</ele>
        <time>2025-03-23T13:35:43.181Z</time>
      </trkpt>
      <trkpt lat="44.186" lon="0.79247">
        <ele>133.9</ele>
        <time>2025-03-23T13:35:59.181Z</time>
      </trkpt>
      <trkpt lat="44.1861" lon="0.79212">
        <ele>134.7</ele>
        <time>2025-03-23T13:36:23.181Z</time>
      </trkpt>
      <trkpt lat="44.18615" lon="0.79204">
        <ele>135.4</ele>
        <time>2025-03-23T13:36:31.181Z</time>
      </trkpt>
      <trkpt lat="44.18621" lon="0.79198">
        <ele>136</ele>
        <time>2025-03-23T13:36:39.181Z</time>
      </trkpt>
      <trkpt lat="44.18629" lon="0.79194">
        <ele>137.2</ele>
        <time>2025-03-23T13:36:47.181Z</time>
      </trkpt>
      <trkpt lat="44.18636" lon="0.79193">
        <ele>138.7</ele>
        <time>2025-03-23T13:36:55.181Z</time>
      </trkpt>
      <trkpt lat="44.18644" lon="0.79196">
        <ele>140.4</ele>
        <time>2025-03-23T13:37:03.181Z</time>
      </trkpt>
      <trkpt lat="44.1865" lon="0.79195">
        <ele>140.2</ele>
        <time>2025-03-23T13:37:11.181Z</time>
      </trkpt>
      <trkpt lat="44.18656" lon="0.79187">
        <ele>136.5</ele>
        <time>2025-03-23T13:37:27.181Z</time>
      </trkpt>
      <trkpt lat="44.18663" lon="0.79185">
        <ele>135.3</ele>
        <time>2025-03-23T13:37:39.181Z</time>
      </trkpt>
      <trkpt lat="44.18665" lon="0.79182">
        <ele>134</ele>
        <time>2025-03-23T13:37:43.181Z</time>
      </trkpt>
      <trkpt lat="44.18669" lon="0.79182">
        <ele>134</ele>
        <time>2025-03-23T13:37:47.181Z</time>
      </trkpt>
      <trkpt lat="44.18673" lon="0.79183">
        <ele>134.8</ele>
        <time>2025-03-23T13:37:51.181Z</time>
      </trkpt>
      <trkpt lat="44.18675" lon="0.79187">
        <ele>136.8</ele>
        <time>2025-03-23T13:37:59.181Z</time>
      </trkpt>
      <trkpt lat="44.18675" lon="0.7918">
        <ele>133.5</ele>
        <time>2025-03-23T13:38:56.181Z</time>
      </trkpt>
      <trkpt lat="44.18687" lon="0.79177">
        <ele>132.4</ele>
        <time>2025-03-23T13:39:08.181Z</time>
      </trkpt>
      <trkpt lat="44.18695" lon="0.7918">
        <ele>134.3</ele>
        <time>2025-03-23T13:39:16.181Z</time>
      </trkpt>
      <trkpt lat="44.18705" lon="0.7918">
        <ele>134.1</ele>
        <time>2025-03-23T13:39:28.181Z</time>
      </trkpt>
      <trkpt lat="44.18708" lon="0.79178">
        <ele>133.1</ele>
        <time>2025-03-23T13:39:34.181Z</time>
      </trkpt>
      <trkpt lat="44.18712" lon="0.79179">
        <ele>133.4</ele>
        <time>2025-03-23T13:39:38.181Z</time>
      </trkpt>
      <trkpt lat="44.18717" lon="0.79174">
        <ele>131.7</ele>
        <time>2025-03-23T13:39:50.181Z</time>
      </trkpt>
      <trkpt lat="44.18718" lon="0.7917">
        <ele>130.2</ele>
        <time>2025-03-23T13:39:54.181Z</time>
      </trkpt>
      <trkpt lat="44.18733" lon="0.79169">
        <ele>131.7</ele>
        <time>2025-03-23T13:40:10.181Z</time>
      </trkpt>
      <trkpt lat="44.1874" lon="0.79166">
        <ele>131.9</ele>
        <time>2025-03-23T13:40:18.181Z</time>
      </trkpt>
      <trkpt lat="44.18759" lon="0.79169">
        <ele>135.3</ele>
        <time>2025-03-23T13:40:50.181Z</time>
      </trkpt>
      <trkpt lat="44.18766" lon="0.79178">
        <ele>138.3</ele>
        <time>2025-03-23T13:41:14.181Z</time>
      </trkpt>
      <trkpt lat="44.18767" lon="0.79182">
        <ele>139.5</ele>
        <time>2025-03-23T13:41:18.181Z</time>
      </trkpt>
      <trkpt lat="44.18765" lon="0.79197">
        <ele>143.4</ele>
        <time>2025-03-23T13:41:30.181Z</time>
      </trkpt>
      <trkpt lat="44.18776" lon="0.79225">
        <ele>147.1</ele>
        <time>2025-03-23T13:41:54.181Z</time>
      </trkpt>
      <trkpt lat="44.18776" lon="0.79234">
        <ele>147.4</ele>
        <time>2025-03-23T13:42:02.181Z</time>
      </trkpt>
      <trkpt lat="44.18779" lon="0.79259">
        <ele>147.9</ele>
        <time>2025-03-23T13:42:18.181Z</time>
      </trkpt>
      <trkpt lat="44.18778" lon="0.79265">
        <ele>148.6</ele>
        <time>2025-03-23T13:42:22.181Z</time>
      </trkpt>
      <trkpt lat="44.18779" lon="0.7928">
        <ele>148.9</ele>
        <time>2025-03-23T13:42:34.181Z</time>
      </trkpt>
      <trkpt lat="44.18791" lon="0.79306">
        <ele>148.6</ele>
        <time>2025-03-23T13:42:58.181Z</time>
      </trkpt>
      <trkpt lat="44.18798" lon="0.79328">
        <ele>149.3</ele>
        <time>2025-03-23T13:43:14.181Z</time>
      </trkpt>
      <trkpt lat="44.18801" lon="0.79345">
        <ele>149.5</ele>
        <time>2025-03-23T13:43:26.181Z</time>
      </trkpt>
      <trkpt lat="44.18805" lon="0.79355">
        <ele>149.1</ele>
        <time>2025-03-23T13:43:34.181Z</time>
      </trkpt>
      <trkpt lat="44.18804" lon="0.79366">
        <ele>149.3</ele>
        <time>2025-03-23T13:43:42.181Z</time>
      </trkpt>
      <trkpt lat="44.18805" lon="0.79371">
        <ele>149.1</ele>
        <time>2025-03-23T13:43:46.181Z</time>
      </trkpt>
      <trkpt lat="44.18803" lon="0.79377">
        <ele>149.3</ele>
        <time>2025-03-23T13:43:50.181Z</time>
      </trkpt>
      <trkpt lat="44.18806" lon="0.79415">
        <ele>148.7</ele>
        <time>2025-03-23T13:44:14.181Z</time>
      </trkpt>
      <trkpt lat="44.18806" lon="0.79428">
        <ele>148.6</ele>
        <time>2025-03-23T13:44:22.181Z</time>
      </trkpt>
      <trkpt lat="44.18809" lon="0.79462">
        <ele>143.5</ele>
        <time>2025-03-23T13:44:46.181Z</time>
      </trkpt>
      <trkpt lat="44.18805" lon="0.79472">
        <ele>143.1</ele>
        <time>2025-03-23T13:44:54.181Z</time>
      </trkpt>
      <trkpt lat="44.18804" lon="0.79496">
        <ele>146.1</ele>
        <time>2025-03-23T13:45:10.181Z</time>
      </trkpt>
      <trkpt lat="44.18805" lon="0.79521">
        <ele>144.6</ele>
        <time>2025-03-23T13:45:26.181Z</time>
      </trkpt>
      <trkpt lat="44.18805" lon="0.79533">
        <ele>144.3</ele>
        <time>2025-03-23T13:45:34.181Z</time>
      </trkpt>
      <trkpt lat="44.188" lon="0.79549">
        <ele>145.6</ele>
        <time>2025-03-23T13:45:46.181Z</time>
      </trkpt>
      <trkpt lat="44.18801" lon="0.7956">
        <ele>145.2</ele>
        <time>2025-03-23T13:45:54.181Z</time>
      </trkpt>
      <trkpt lat="44.18795" lon="0.79593">
        <ele>145.8</ele>
        <time>2025-03-23T13:46:42.181Z</time>
      </trkpt>
      <trkpt lat="44.1879" lon="0.79597">
        <ele>147.2</ele>
        <time>2025-03-23T13:46:58.181Z</time>
      </trkpt>
      <trkpt lat="44.18791" lon="0.79601">
        <ele>146.7</ele>
        <time>2025-03-23T13:47:30.181Z</time>
      </trkpt>
      <trkpt lat="44.18788" lon="0.79612">
        <ele>147.2</ele>
        <time>2025-03-23T13:48:10.181Z</time>
      </trkpt>
      <trkpt lat="44.18789" lon="0.79636">
        <ele>146.3</ele>
        <time>2025-03-23T13:48:26.181Z</time>
      </trkpt>
      <trkpt lat="44.18783" lon="0.79655">
        <ele>147.5</ele>
        <time>2025-03-23T13:48:42.181Z</time>
      </trkpt>
      <trkpt lat="44.1878" lon="0.7966">
        <ele>148.3</ele>
        <time>2025-03-23T13:48:46.181Z</time>
      </trkpt>
      <trkpt lat="44.18779" lon="0.79713">
        <ele>149.3</ele>
        <time>2025-03-23T13:49:26.181Z</time>
      </trkpt>
      <trkpt lat="44.18782" lon="0.7978">
        <ele>150.5</ele>
        <time>2025-03-23T13:50:30.181Z</time>
      </trkpt>
      <trkpt lat="44.18791" lon="0.79783">
        <ele>149.3</ele>
        <time>2025-03-23T13:50:38.181Z</time>
      </trkpt>
      <trkpt lat="44.18806" lon="0.79778">
        <ele>146.9</ele>
        <time>2025-03-23T13:50:54.181Z</time>
      </trkpt>
      <trkpt lat="44.18813" lon="0.79786">
        <ele>144.1</ele>
        <time>2025-03-23T13:51:02.181Z</time>
      </trkpt>
      <trkpt lat="44.18823" lon="0.79813">
        <ele>142.3</ele>
        <time>2025-03-23T13:51:18.181Z</time>
      </trkpt>
      <trkpt lat="44.18829" lon="0.79834">
        <ele>142.4</ele>
        <time>2025-03-23T13:51:34.181Z</time>
      </trkpt>
      <trkpt lat="44.18832" lon="0.79856">
        <ele>142.2</ele>
        <time>2025-03-23T13:51:50.181Z</time>
      </trkpt>
      <trkpt lat="44.18832" lon="0.79884">
        <ele>139.4</ele>
        <time>2025-03-23T13:52:06.181Z</time>
      </trkpt>
      <trkpt lat="44.18823" lon="0.79928">
        <ele>141.7</ele>
        <time>2025-03-23T13:52:34.181Z</time>
      </trkpt>
      <trkpt lat="44.18822" lon="0.79955">
        <ele>140</ele>
        <time>2025-03-23T13:52:50.181Z</time>
      </trkpt>
      <trkpt lat="44.18821" lon="0.7996">
        <ele>140.4</ele>
        <time>2025-03-23T13:52:54.181Z</time>
      </trkpt>
      <trkpt lat="44.18822" lon="0.79971">
        <ele>139.7</ele>
        <time>2025-03-23T13:53:02.181Z</time>
      </trkpt>
      <trkpt lat="44.18807" lon="0.80038">
        <ele>141.6</ele>
        <time>2025-03-23T13:53:46.181Z</time>
      </trkpt>
      <trkpt lat="44.18804" lon="0.8006">
        <ele>141.3</ele>
        <time>2025-03-23T13:54:02.181Z</time>
      </trkpt>
      <trkpt lat="44.18795" lon="0.80096">
        <ele>142</ele>
        <time>2025-03-23T13:54:26.181Z</time>
      </trkpt>
      <trkpt lat="44.18795" lon="0.80119">
        <ele>140.2</ele>
        <time>2025-03-23T13:54:42.181Z</time>
      </trkpt>
      <trkpt lat="44.18796" lon="0.8013">
        <ele>138.6</ele>
        <time>2025-03-23T13:54:50.181Z</time>
      </trkpt>
      <trkpt lat="44.18788" lon="0.80181">
        <ele>136.3</ele>
        <time>2025-03-23T13:55:26.181Z</time>
      </trkpt>
      <trkpt lat="44.18796" lon="0.80201">
        <ele>132.4</ele>
        <time>2025-03-23T13:55:58.181Z</time>
      </trkpt>
      <trkpt lat="44.18793" lon="0.80232">
        <ele>131.9</ele>
        <time>2025-03-23T13:56:30.181Z</time>
      </trkpt>
      <trkpt lat="44.18794" lon="0.8025">
        <ele>129.2</ele>
        <time>2025-03-23T13:57:18.181Z</time>
      </trkpt>
      <trkpt lat="44.18795" lon="0.80321">
        <ele>124</ele>
        <time>2025-03-23T13:58:06.181Z</time>
      </trkpt>
      <trkpt lat="44.18797" lon="0.80334">
        <ele>122.9</ele>
        <time>2025-03-23T13:58:14.181Z</time>
      </trkpt>
      <trkpt lat="44.18798" lon="0.80358">
        <ele>123.2</ele>
        <time>2025-03-23T13:58:30.181Z</time>
      </trkpt>
      <trkpt lat="44.188" lon="0.80381">
        <ele>122.9</ele>
        <time>2025-03-23T13:58:46.181Z</time>
      </trkpt>
      <trkpt lat="44.18799" lon="0.80387">
        <ele>122.8</ele>
        <time>2025-03-23T13:58:50.181Z</time>
      </trkpt>
      <trkpt lat="44.18796" lon="0.80394">
        <ele>122.8</ele>
        <time>2025-03-23T13:59:38.181Z</time>
      </trkpt>
      <trkpt lat="44.18787" lon="0.80395">
        <ele>122.2</ele>
        <time>2025-03-23T14:00:02.181Z</time>
      </trkpt>
      <trkpt lat="44.18751" lon="0.80407">
        <ele>113.5</ele>
        <time>2025-03-23T14:00:42.181Z</time>
      </trkpt>
      <trkpt lat="44.18736" lon="0.8042">
        <ele>109.4</ele>
        <time>2025-03-23T14:01:04.181Z</time>
      </trkpt>
      <trkpt lat="44.18712" lon="0.80427">
        <ele>104.9</ele>
        <time>2025-03-23T14:01:28.181Z</time>
      </trkpt>
      <trkpt lat="44.18705" lon="0.80427">
        <ele>103.7</ele>
        <time>2025-03-23T14:01:36.181Z</time>
      </trkpt>
      <trkpt lat="44.18687" lon="0.80431">
        <ele>101.6</ele>
        <time>2025-03-23T14:01:52.181Z</time>
      </trkpt>
      <trkpt lat="44.18671" lon="0.80437">
        <ele>100.9</ele>
        <time>2025-03-23T14:02:08.181Z</time>
      </trkpt>
      <trkpt lat="44.18662" lon="0.80443">
        <ele>101.2</ele>
        <time>2025-03-23T14:02:16.181Z</time>
      </trkpt>
      <trkpt lat="44.18633" lon="0.80446">
        <ele>104.1</ele>
        <time>2025-03-23T14:02:48.181Z</time>
      </trkpt>
      <trkpt lat="44.18624" lon="0.80444">
        <ele>105</ele>
        <time>2025-03-23T14:02:56.181Z</time>
      </trkpt>
      <trkpt lat="44.18617" lon="0.80444">
        <ele>106.1</ele>
        <time>2025-03-23T14:03:04.181Z</time>
      </trkpt>
      <trkpt lat="44.18603" lon="0.80448">
        <ele>108.1</ele>
        <time>2025-03-23T14:03:20.181Z</time>
      </trkpt>
      <trkpt lat="44.186" lon="0.80448">
        <ele>108.1</ele>
        <time>2025-03-23T14:03:24.181Z</time>
      </trkpt>
      <trkpt lat="44.18598" lon="0.8045">
        <ele>108.5</ele>
        <time>2025-03-23T14:03:28.181Z</time>
      </trkpt>
      <trkpt lat="44.18589" lon="0.80461">
        <ele>110.8</ele>
        <time>2025-03-23T14:03:44.181Z</time>
      </trkpt>
      <trkpt lat="44.18582" lon="0.80467">
        <ele>112</ele>
        <time>2025-03-23T14:03:56.181Z</time>
      </trkpt>
      <trkpt lat="44.18575" lon="0.80482">
        <ele>113.5</ele>
        <time>2025-03-23T14:04:12.181Z</time>
      </trkpt>
      <trkpt lat="44.18563" lon="0.80497">
        <ele>114.4</ele>
        <time>2025-03-23T14:04:28.181Z</time>
      </trkpt>
      <trkpt lat="44.1855" lon="0.80521">
        <ele>115.7</ele>
        <time>2025-03-23T14:04:52.181Z</time>
      </trkpt>
      <trkpt lat="44.18544" lon="0.80529">
        <ele>115.9</ele>
        <time>2025-03-23T14:05:00.181Z</time>
      </trkpt>
      <trkpt lat="44.1854" lon="0.80533">
        <ele>115.8</ele>
        <time>2025-03-23T14:05:04.181Z</time>
      </trkpt>
      <trkpt lat="44.18522" lon="0.80559">
        <ele>118.3</ele>
        <time>2025-03-23T14:05:28.181Z</time>
      </trkpt>
      <trkpt lat="44.18511" lon="0.80585">
        <ele>120.9</ele>
        <time>2025-03-23T14:05:52.181Z</time>
      </trkpt>
      <trkpt lat="44.1849" lon="0.80611">
        <ele>124.4</ele>
        <time>2025-03-23T14:06:24.181Z</time>
      </trkpt>
      <trkpt lat="44.18489" lon="0.80615">
        <ele>124.7</ele>
        <time>2025-03-23T14:06:28.181Z</time>
      </trkpt>
      <trkpt lat="44.18483" lon="0.8062">
        <ele>125.3</ele>
        <time>2025-03-23T14:06:36.181Z</time>
      </trkpt>
      <trkpt lat="44.18482" lon="0.80626">
        <ele>125.8</ele>
        <time>2025-03-23T14:06:44.181Z</time>
      </trkpt>
      <trkpt lat="44.18473" lon="0.80638">
        <ele>126.9</ele>
        <time>2025-03-23T14:07:00.181Z</time>
      </trkpt>
      <trkpt lat="44.18465" lon="0.80643">
        <ele>128.1</ele>
        <time>2025-03-23T14:07:12.181Z</time>
      </trkpt>
      <trkpt lat="44.18456" lon="0.80652">
        <ele>129.6</ele>
        <time>2025-03-23T14:07:28.181Z</time>
      </trkpt>
      <trkpt lat="44.18449" lon="0.80656">
        <ele>130.5</ele>
        <time>2025-03-23T14:07:40.181Z</time>
      </trkpt>
      <trkpt lat="44.18445" lon="0.80661">
        <ele>131</ele>
        <time>2025-03-23T14:07:48.181Z</time>
      </trkpt>
      <trkpt lat="44.18435" lon="0.80666">
        <ele>132.8</ele>
        <time>2025-03-23T14:08:04.181Z</time>
      </trkpt>
      <trkpt lat="44.18423" lon="0.80677">
        <ele>134.5</ele>
        <time>2025-03-23T14:08:28.181Z</time>
      </trkpt>
      <trkpt lat="44.1842" lon="0.80677">
        <ele>135</ele>
        <time>2025-03-23T14:08:36.181Z</time>
      </trkpt>
      <trkpt lat="44.18411" lon="0.80686">
        <ele>136.6</ele>
        <time>2025-03-23T14:09:08.181Z</time>
      </trkpt>
      <trkpt lat="44.1841" lon="0.80684">
        <ele>137</ele>
        <time>2025-03-23T14:09:16.181Z</time>
      </trkpt>
      <trkpt lat="44.18403" lon="0.80689">
        <ele>138.4</ele>
        <time>2025-03-23T14:09:24.181Z</time>
      </trkpt>
      <trkpt lat="44.18396" lon="0.80699">
        <ele>139.3</ele>
        <time>2025-03-23T14:09:34.181Z</time>
      </trkpt>
      <trkpt lat="44.18392" lon="0.80699">
        <ele>140</ele>
        <time>2025-03-23T14:09:38.181Z</time>
      </trkpt>
      <trkpt lat="44.18378" lon="0.80708">
        <ele>141.7</ele>
        <time>2025-03-23T14:09:54.181Z</time>
      </trkpt>
      <trkpt lat="44.18364" lon="0.8071">
        <ele>144.1</ele>
        <time>2025-03-23T14:10:10.181Z</time>
      </trkpt>
      <trkpt lat="44.18356" lon="0.80707">
        <ele>145.3</ele>
        <time>2025-03-23T14:10:18.181Z</time>
      </trkpt>
      <trkpt lat="44.1835" lon="0.80705">
        <ele>146.2</ele>
        <time>2025-03-23T14:10:26.181Z</time>
      </trkpt>
      <trkpt lat="44.18336" lon="0.80706">
        <ele>148.3</ele>
        <time>2025-03-23T14:10:42.181Z</time>
      </trkpt>
      <trkpt lat="44.18329" lon="0.80703">
        <ele>149.2</ele>
        <time>2025-03-23T14:10:50.181Z</time>
      </trkpt>
      <trkpt lat="44.18322" lon="0.80706">
        <ele>150</ele>
        <time>2025-03-23T14:10:58.181Z</time>
      </trkpt>
      <trkpt lat="44.18305" lon="0.80702">
        <ele>152.1</ele>
        <time>2025-03-23T14:11:18.181Z</time>
      </trkpt>
      <trkpt lat="44.18301" lon="0.80697">
        <ele>152.3</ele>
        <time>2025-03-23T14:11:22.181Z</time>
      </trkpt>
      <trkpt lat="44.1829" lon="0.80693">
        <ele>153.1</ele>
        <time>2025-03-23T14:11:46.181Z</time>
      </trkpt>
      <trkpt lat="44.18282" lon="0.80686">
        <ele>153.7</ele>
        <time>2025-03-23T14:12:02.181Z</time>
      </trkpt>
      <trkpt lat="44.18241" lon="0.80661">
        <ele>156.3</ele>
        <time>2025-03-23T14:16:54.181Z</time>
      </trkpt>
      <trkpt lat="44.1821" lon="0.80644">
        <ele>157.5</ele>
        <time>2025-03-23T14:17:26.181Z</time>
      </trkpt>
      <trkpt lat="44.18203" lon="0.80638">
        <ele>157.7</ele>
        <time>2025-03-23T14:17:34.181Z</time>
      </trkpt>
      <trkpt lat="44.18188" lon="0.80629">
        <ele>158.6</ele>
        <time>2025-03-23T14:17:50.181Z</time>
      </trkpt>
      <trkpt lat="44.1813" lon="0.80611">
        <ele>158.7</ele>
        <time>2025-03-23T14:18:46.181Z</time>
      </trkpt>
      <trkpt lat="44.18112" lon="0.80602">
        <ele>158</ele>
        <time>2025-03-23T14:19:02.181Z</time>
      </trkpt>
      <trkpt lat="44.18075" lon="0.80589">
        <ele>157.1</ele>
        <time>2025-03-23T14:19:34.181Z</time>
      </trkpt>
      <trkpt lat="44.18038" lon="0.80579">
        <ele>156.2</ele>
        <time>2025-03-23T14:20:06.181Z</time>
      </trkpt>
      <trkpt lat="44.18021" lon="0.80572">
        <ele>155.6</ele>
        <time>2025-03-23T14:20:22.181Z</time>
      </trkpt>
      <trkpt lat="44.17947" lon="0.80552">
        <ele>154.9</ele>
        <time>2025-03-23T14:21:26.181Z</time>
      </trkpt>
      <trkpt lat="44.17888" lon="0.80539">
        <ele>154.4</ele>
        <time>2025-03-23T14:22:14.181Z</time>
      </trkpt>
      <trkpt lat="44.17849" lon="0.80527">
        <ele>154</ele>
        <time>2025-03-23T14:22:46.181Z</time>
      </trkpt>
      <trkpt lat="44.17829" lon="0.80519">
        <ele>154.2</ele>
        <time>2025-03-23T14:23:02.181Z</time>
      </trkpt>
      <trkpt lat="44.17811" lon="0.80508">
        <ele>154.8</ele>
        <time>2025-03-23T14:23:18.181Z</time>
      </trkpt>
      <trkpt lat="44.17794" lon="0.80493">
        <ele>155.8</ele>
        <time>2025-03-23T14:23:34.181Z</time>
      </trkpt>
      <trkpt lat="44.17739" lon="0.8043">
        <ele>159.8</ele>
        <time>2025-03-23T14:27:10.181Z</time>
      </trkpt>
      <trkpt lat="44.17731" lon="0.80423">
        <ele>159.5</ele>
        <time>2025-03-23T14:27:26.181Z</time>
      </trkpt>
      <trkpt lat="44.17717" lon="0.80408">
        <ele>158.3</ele>
        <time>2025-03-23T14:27:42.181Z</time>
      </trkpt>
      <trkpt lat="44.17703" lon="0.80396">
        <ele>156.9</ele>
        <time>2025-03-23T14:27:58.181Z</time>
      </trkpt>
      <trkpt lat="44.17689" lon="0.8038">
        <ele>155.3</ele>
        <time>2025-03-23T14:28:14.181Z</time>
      </trkpt>
      <trkpt lat="44.17684" lon="0.80378">
        <ele>154.5</ele>
        <time>2025-03-23T14:28:18.181Z</time>
      </trkpt>
      <trkpt lat="44.1768" lon="0.80379">
        <ele>154.1</ele>
        <time>2025-03-23T14:28:22.181Z</time>
      </trkpt>
      <trkpt lat="44.17676" lon="0.80382">
        <ele>153.7</ele>
        <time>2025-03-23T14:28:26.181Z</time>
      </trkpt>
      <trkpt lat="44.17658" lon="0.80415">
        <ele>153</ele>
        <time>2025-03-23T14:28:50.181Z</time>
      </trkpt>
      <trkpt lat="44.17626" lon="0.80451">
        <ele>152.3</ele>
        <time>2025-03-23T14:29:22.181Z</time>
      </trkpt>
      <trkpt lat="44.17618" lon="0.80457">
        <ele>151.9</ele>
        <time>2025-03-23T14:29:30.181Z</time>
      </trkpt>
      <trkpt lat="44.17587" lon="0.8049">
        <ele>151.5</ele>
        <time>2025-03-23T14:30:02.181Z</time>
      </trkpt>
      <trkpt lat="44.17571" lon="0.80504">
        <ele>150.9</ele>
        <time>2025-03-23T14:30:18.181Z</time>
      </trkpt>
      <trkpt lat="44.17565" lon="0.80507">
        <ele>150.6</ele>
        <time>2025-03-23T14:30:26.181Z</time>
      </trkpt>
      <trkpt lat="44.17553" lon="0.8052">
        <ele>151</ele>
        <time>2025-03-23T14:30:42.181Z</time>
      </trkpt>
      <trkpt lat="44.17532" lon="0.80533">
        <ele>150.6</ele>
        <time>2025-03-23T14:31:06.181Z</time>
      </trkpt>
      <trkpt lat="44.17523" lon="0.8054">
        <ele>150.6</ele>
        <time>2025-03-23T14:31:22.181Z</time>
      </trkpt>
      <trkpt lat="44.17496" lon="0.80554">
        <ele>150.7</ele>
        <time>2025-03-23T14:31:46.181Z</time>
      </trkpt>
      <trkpt lat="44.17477" lon="0.80555">
        <ele>150.1</ele>
        <time>2025-03-23T14:32:10.181Z</time>
      </trkpt>
      <trkpt lat="44.17454" lon="0.80534">
        <ele>146.2</ele>
        <time>2025-03-23T14:33:06.181Z</time>
      </trkpt>
      <trkpt lat="44.17434" lon="0.80507">
        <ele>143.3</ele>
        <time>2025-03-23T14:33:30.181Z</time>
      </trkpt>
      <trkpt lat="44.17432" lon="0.80501">
        <ele>142.7</ele>
        <time>2025-03-23T14:33:38.181Z</time>
      </trkpt>
      <trkpt lat="44.17424" lon="0.80497">
        <ele>141.7</ele>
        <time>2025-03-23T14:33:46.181Z</time>
      </trkpt>
      <trkpt lat="44.17409" lon="0.80486">
        <ele>139.9</ele>
        <time>2025-03-23T14:34:02.181Z</time>
      </trkpt>
      <trkpt lat="44.17388" lon="0.80473">
        <ele>137.2</ele>
        <time>2025-03-23T14:34:22.181Z</time>
      </trkpt>
      <trkpt lat="44.17352" lon="0.80459">
        <ele>141</ele>
        <time>2025-03-23T14:34:54.181Z</time>
      </trkpt>
      <trkpt lat="44.17347" lon="0.80453">
        <ele>141.5</ele>
        <time>2025-03-23T14:35:10.181Z</time>
      </trkpt>
      <trkpt lat="44.1731" lon="0.80433">
        <ele>144.7</ele>
        <time>2025-03-23T14:35:58.181Z</time>
      </trkpt>
      <trkpt lat="44.17294" lon="0.80431">
        <ele>146.6</ele>
        <time>2025-03-23T14:36:14.181Z</time>
      </trkpt>
      <trkpt lat="44.17268" lon="0.80415">
        <ele>150.9</ele>
        <time>2025-03-23T14:36:46.181Z</time>
      </trkpt>
      <trkpt lat="44.17245" lon="0.80399">
        <ele>155.1</ele>
        <time>2025-03-23T14:37:18.181Z</time>
      </trkpt>
      <trkpt lat="44.17237" lon="0.80391">
        <ele>157.2</ele>
        <time>2025-03-23T14:37:34.181Z</time>
      </trkpt>
      <trkpt lat="44.17234" lon="0.80386">
        <ele>158.4</ele>
        <time>2025-03-23T14:37:42.181Z</time>
      </trkpt>
      <trkpt lat="44.17217" lon="0.80369">
        <ele>162.5</ele>
        <time>2025-03-23T14:38:14.181Z</time>
      </trkpt>
      <trkpt lat="44.17199" lon="0.80344">
        <ele>166.5</ele>
        <time>2025-03-23T14:38:46.181Z</time>
      </trkpt>
      <trkpt lat="44.17177" lon="0.8028">
        <ele>172.8</ele>
        <time>2025-03-23T14:39:50.181Z</time>
      </trkpt>
      <trkpt lat="44.17168" lon="0.80239">
        <ele>173.6</ele>
        <time>2025-03-23T14:41:26.181Z</time>
      </trkpt>
      <trkpt lat="44.17169" lon="0.80234">
        <ele>173.3</ele>
        <time>2025-03-23T14:43:22.181Z</time>
      </trkpt>
      <trkpt lat="44.17178" lon="0.8023">
        <ele>172.8</ele>
        <time>2025-03-23T14:43:30.181Z</time>
      </trkpt>
      <trkpt lat="44.17186" lon="0.80223">
        <ele>172.3</ele>
        <time>2025-03-23T14:43:38.181Z</time>
      </trkpt>
      <trkpt lat="44.17193" lon="0.80214">
        <ele>171.7</ele>
        <time>2025-03-23T14:43:46.181Z</time>
      </trkpt>
      <trkpt lat="44.17216" lon="0.80171">
        <ele>170</ele>
        <time>2025-03-23T14:44:18.181Z</time>
      </trkpt>
      <trkpt lat="44.17222" lon="0.80153">
        <ele>169.5</ele>
        <time>2025-03-23T14:44:30.181Z</time>
      </trkpt>
      <trkpt lat="44.17253" lon="0.8009">
        <ele>166.1</ele>
        <time>2025-03-23T14:45:14.181Z</time>
      </trkpt>
      <trkpt lat="44.17255" lon="0.80083">
        <ele>165.8</ele>
        <time>2025-03-23T14:45:18.181Z</time>
      </trkpt>
      <trkpt lat="44.1726" lon="0.80073">
        <ele>165.4</ele>
        <time>2025-03-23T14:45:26.181Z</time>
      </trkpt>
      <trkpt lat="44.17287" lon="0.80017">
        <ele>163.3</ele>
        <time>2025-03-23T14:46:06.181Z</time>
      </trkpt>
      <trkpt lat="44.17303" lon="0.7997">
        <ele>160</ele>
        <time>2025-03-23T14:46:38.181Z</time>
      </trkpt>
      <trkpt lat="44.17323" lon="0.79907">
        <ele>157.3</ele>
        <time>2025-03-23T14:47:22.181Z</time>
      </trkpt>
      <trkpt lat="44.17329" lon="0.79885">
        <ele>156.7</ele>
        <time>2025-03-23T14:47:38.181Z</time>
      </trkpt>
      <trkpt lat="44.17335" lon="0.79874">
        <ele>156.4</ele>
        <time>2025-03-23T14:47:46.181Z</time>
      </trkpt>
      <trkpt lat="44.17341" lon="0.7985">
        <ele>155.3</ele>
        <time>2025-03-23T14:48:02.181Z</time>
      </trkpt>
      <trkpt lat="44.17348" lon="0.798">
        <ele>154.4</ele>
        <time>2025-03-23T14:48:34.181Z</time>
      </trkpt>
      <trkpt lat="44.17351" lon="0.79749">
        <ele>153.6</ele>
        <time>2025-03-23T14:49:06.181Z</time>
      </trkpt>
      <trkpt lat="44.17359" lon="0.79697">
        <ele>153.9</ele>
        <time>2025-03-23T14:49:38.181Z</time>
      </trkpt>
      <trkpt lat="44.17366" lon="0.79674">
        <ele>154</ele>
        <time>2025-03-23T14:49:54.181Z</time>
      </trkpt>
      <trkpt lat="44.17376" lon="0.79654">
        <ele>154.5</ele>
        <time>2025-03-23T14:50:10.181Z</time>
      </trkpt>
      <trkpt lat="44.17382" lon="0.79645">
        <ele>154.8</ele>
        <time>2025-03-23T14:50:18.181Z</time>
      </trkpt>
      <trkpt lat="44.17384" lon="0.79629">
        <ele>155.3</ele>
        <time>2025-03-23T14:53:14.181Z</time>
      </trkpt>
      <trkpt lat="44.17369" lon="0.7963">
        <ele>155.3</ele>
        <time>2025-03-23T14:53:30.181Z</time>
      </trkpt>
      <trkpt lat="44.17308" lon="0.79625">
        <ele>148.9</ele>
        <time>2025-03-23T14:54:30.181Z</time>
      </trkpt>
      <trkpt lat="44.17307" lon="0.79617">
        <ele>148.4</ele>
        <time>2025-03-23T14:55:34.181Z</time>
      </trkpt>
      <trkpt lat="44.17302" lon="0.79625">
        <ele>147.9</ele>
        <time>2025-03-23T14:55:54.181Z</time>
      </trkpt>
      <trkpt lat="44.17289" lon="0.79629">
        <ele>145.8</ele>
        <time>2025-03-23T14:56:10.181Z</time>
      </trkpt>
      <trkpt lat="44.17259" lon="0.79644">
        <ele>143.3</ele>
        <time>2025-03-23T14:56:34.181Z</time>
      </trkpt>
      <trkpt lat="44.17239" lon="0.79647">
        <ele>142.2</ele>
        <time>2025-03-23T14:56:50.181Z</time>
      </trkpt>
      <trkpt lat="44.1722" lon="0.79648">
        <ele>141.9</ele>
        <time>2025-03-23T14:57:06.181Z</time>
      </trkpt>
      <trkpt lat="44.17203" lon="0.79653">
        <ele>143.7</ele>
        <time>2025-03-23T14:57:20.181Z</time>
      </trkpt>
      <trkpt lat="44.17188" lon="0.7965">
        <ele>145.6</ele>
        <time>2025-03-23T14:57:36.181Z</time>
      </trkpt>
      <trkpt lat="44.17174" lon="0.79641">
        <ele>147.8</ele>
        <time>2025-03-23T14:58:04.181Z</time>
      </trkpt>
      <trkpt lat="44.17158" lon="0.79639">
        <ele>150</ele>
        <time>2025-03-23T14:58:20.181Z</time>
      </trkpt>
      <trkpt lat="44.17126" lon="0.79642">
        <ele>151.8</ele>
        <time>2025-03-23T14:58:52.181Z</time>
      </trkpt>
      <trkpt lat="44.17119" lon="0.79647">
        <ele>152.1</ele>
        <time>2025-03-23T14:59:00.182Z</time>
      </trkpt>
      <trkpt lat="44.17084" lon="0.79662">
        <ele>150.7</ele>
        <time>2025-03-23T14:59:32.181Z</time>
      </trkpt>
      <trkpt lat="44.17052" lon="0.7968">
        <ele>149.6</ele>
        <time>2025-03-23T15:00:04.181Z</time>
      </trkpt>
      <trkpt lat="44.17043" lon="0.79684">
        <ele>149</ele>
        <time>2025-03-23T15:00:12.181Z</time>
      </trkpt>
      <trkpt lat="44.1701" lon="0.79705">
        <ele>146.8</ele>
        <time>2025-03-23T15:00:44.181Z</time>
      </trkpt>
      <trkpt lat="44.16981" lon="0.79719">
        <ele>142.8</ele>
        <time>2025-03-23T15:01:40.181Z</time>
      </trkpt>
      <trkpt lat="44.16967" lon="0.79724">
        <ele>140.9</ele>
        <time>2025-03-23T15:02:00.181Z</time>
      </trkpt>
      <trkpt lat="44.16958" lon="0.79723">
        <ele>140</ele>
        <time>2025-03-23T15:02:08.181Z</time>
      </trkpt>
      <trkpt lat="44.16956" lon="0.79725">
        <ele>140.3</ele>
        <time>2025-03-23T15:02:12.181Z</time>
      </trkpt>
      <trkpt lat="44.16949" lon="0.79727">
        <ele>140.2</ele>
        <time>2025-03-23T15:02:20.181Z</time>
      </trkpt>
      <trkpt lat="44.16939" lon="0.79726">
        <ele>139.6</ele>
        <time>2025-03-23T15:02:28.181Z</time>
      </trkpt>
      <trkpt lat="44.16928" lon="0.79721">
        <ele>138.9</ele>
        <time>2025-03-23T15:02:44.181Z</time>
      </trkpt>
      <trkpt lat="44.1692" lon="0.79719">
        <ele>138.7</ele>
        <time>2025-03-23T15:02:52.181Z</time>
      </trkpt>
      <trkpt lat="44.16908" lon="0.79712">
        <ele>139.2</ele>
        <time>2025-03-23T15:03:04.181Z</time>
      </trkpt>
      <trkpt lat="44.16894" lon="0.79701">
        <ele>141.5</ele>
        <time>2025-03-23T15:03:20.181Z</time>
      </trkpt>
      <trkpt lat="44.16884" lon="0.79689">
        <ele>144.6</ele>
        <time>2025-03-23T15:03:36.181Z</time>
      </trkpt>
      <trkpt lat="44.16876" lon="0.79684">
        <ele>146.9</ele>
        <time>2025-03-23T15:03:48.181Z</time>
      </trkpt>
      <trkpt lat="44.16855" lon="0.79679">
        <ele>150.5</ele>
        <time>2025-03-23T15:04:12.181Z</time>
      </trkpt>
      <trkpt lat="44.16853" lon="0.79677">
        <ele>150.7</ele>
        <time>2025-03-23T15:04:16.181Z</time>
      </trkpt>
      <trkpt lat="44.16845" lon="0.79679">
        <ele>151.6</ele>
        <time>2025-03-23T15:04:24.181Z</time>
      </trkpt>
      <trkpt lat="44.1683" lon="0.79679">
        <ele>153.4</ele>
        <time>2025-03-23T15:04:40.181Z</time>
      </trkpt>
      <trkpt lat="44.16823" lon="0.79677">
        <ele>154.3</ele>
        <time>2025-03-23T15:04:48.181Z</time>
      </trkpt>
      <trkpt lat="44.16807" lon="0.79677">
        <ele>156.6</ele>
        <time>2025-03-23T15:05:04.181Z</time>
      </trkpt>
      <trkpt lat="44.1679" lon="0.79674">
        <ele>158.8</ele>
        <time>2025-03-23T15:05:20.181Z</time>
      </trkpt>
      <trkpt lat="44.16759" lon="0.79671">
        <ele>163</ele>
        <time>2025-03-23T15:05:52.181Z</time>
      </trkpt>
      <trkpt lat="44.16726" lon="0.79671">
        <ele>167.6</ele>
        <time>2025-03-23T15:06:24.181Z</time>
      </trkpt>
      <trkpt lat="44.16724" lon="0.79669">
        <ele>167.9</ele>
        <time>2025-03-23T15:06:40.181Z</time>
      </trkpt>
      <trkpt lat="44.16693" lon="0.79665">
        <ele>174.2</ele>
        <time>2025-03-23T15:07:28.181Z</time>
      </trkpt>
      <trkpt lat="44.16685" lon="0.79667">
        <ele>175.3</ele>
        <time>2025-03-23T15:07:36.181Z</time>
      </trkpt>
      <trkpt lat="44.16679" lon="0.79665">
        <ele>176.3</ele>
        <time>2025-03-23T15:07:44.181Z</time>
      </trkpt>
      <trkpt lat="44.1666" lon="0.79665">
        <ele>178</ele>
        <time>2025-03-23T15:08:16.181Z</time>
      </trkpt>
      <trkpt lat="44.16653" lon="0.79659">
        <ele>177.7</ele>
        <time>2025-03-23T15:08:52.181Z</time>
      </trkpt>
      <trkpt lat="44.16651" lon="0.79655">
        <ele>177.5</ele>
        <time>2025-03-23T15:08:56.181Z</time>
      </trkpt>
      <trkpt lat="44.1668" lon="0.79571">
        <ele>175.1</ele>
        <time>2025-03-23T15:10:04.181Z</time>
      </trkpt>
      <trkpt lat="44.16681" lon="0.79571">
        <ele>175</ele>
        <time>2025-03-23T15:10:08.181Z</time>
      </trkpt>
      <trkpt lat="44.16686" lon="0.79553">
        <ele>174.7</ele>
        <time>2025-03-23T15:10:24.181Z</time>
      </trkpt>
      <trkpt lat="44.16695" lon="0.79529">
        <ele>175.9</ele>
        <time>2025-03-23T15:10:40.181Z</time>
      </trkpt>
      <trkpt lat="44.16701" lon="0.79521">
        <ele>175.1</ele>
        <time>2025-03-23T15:10:48.181Z</time>
      </trkpt>
      <trkpt lat="44.16708" lon="0.79501">
        <ele>175</ele>
        <time>2025-03-23T15:11:04.181Z</time>
      </trkpt>
      <trkpt lat="44.16713" lon="0.79493">
        <ele>174.7</ele>
        <time>2025-03-23T15:11:12.181Z</time>
      </trkpt>
      <trkpt lat="44.16731" lon="0.79449">
        <ele>174.4</ele>
        <time>2025-03-23T15:11:44.181Z</time>
      </trkpt>
      <trkpt lat="44.16771" lon="0.79373">
        <ele>173.4</ele>
        <time>2025-03-23T15:12:40.181Z</time>
      </trkpt>
      <trkpt lat="44.1678" lon="0.7935">
        <ele>172.6</ele>
        <time>2025-03-23T15:12:56.181Z</time>
      </trkpt>
      <trkpt lat="44.16791" lon="0.79329">
        <ele>171.9</ele>
        <time>2025-03-23T15:13:18.181Z</time>
      </trkpt>
      <trkpt lat="44.16797" lon="0.79308">
        <ele>171.4</ele>
        <time>2025-03-23T15:13:34.181Z</time>
      </trkpt>
      <trkpt lat="44.16831" lon="0.79245">
        <ele>168.8</ele>
        <time>2025-03-23T15:14:22.181Z</time>
      </trkpt>
      <trkpt lat="44.16837" lon="0.79221">
        <ele>170.8</ele>
        <time>2025-03-23T15:14:38.181Z</time>
      </trkpt>
      <trkpt lat="44.16845" lon="0.79199">
        <ele>170.5</ele>
        <time>2025-03-23T15:14:54.181Z</time>
      </trkpt>
      <trkpt lat="44.16868" lon="0.79148">
        <ele>169.3</ele>
        <time>2025-03-23T15:15:34.181Z</time>
      </trkpt>
      <trkpt lat="44.16893" lon="0.79082">
        <ele>167.4</ele>
        <time>2025-03-23T15:16:22.181Z</time>
      </trkpt>
      <trkpt lat="44.16903" lon="0.79064">
        <ele>166.1</ele>
        <time>2025-03-23T15:16:38.181Z</time>
      </trkpt>
      <trkpt lat="44.16908" lon="0.79062">
        <ele>165.7</ele>
        <time>2025-03-23T15:16:46.181Z</time>
      </trkpt>
      <trkpt lat="44.16918" lon="0.79072">
        <ele>163.6</ele>
        <time>2025-03-23T15:17:18.181Z</time>
      </trkpt>
      <trkpt lat="44.16934" lon="0.79083">
        <ele>159.9</ele>
        <time>2025-03-23T15:17:34.181Z</time>
      </trkpt>
      <trkpt lat="44.16951" lon="0.79098">
        <ele>157.4</ele>
        <time>2025-03-23T15:17:50.181Z</time>
      </trkpt>
      <trkpt lat="44.17022" lon="0.7915">
        <ele>156</ele>
        <time>2025-03-23T15:18:54.181Z</time>
      </trkpt>
      <trkpt lat="44.17041" lon="0.79169">
        <ele>155.5</ele>
        <time>2025-03-23T15:19:14.181Z</time>
      </trkpt>
      <trkpt lat="44.17046" lon="0.79181">
        <ele>155</ele>
        <time>2025-03-23T15:19:22.181Z</time>
      </trkpt>
      <trkpt lat="44.17054" lon="0.79189">
        <ele>154.3</ele>
        <time>2025-03-23T15:19:30.181Z</time>
      </trkpt>
      <trkpt lat="44.1706" lon="0.79191">
        <ele>153.3</ele>
        <time>2025-03-23T15:19:38.181Z</time>
      </trkpt>
      <trkpt lat="44.17067" lon="0.79191">
        <ele>152.3</ele>
        <time>2025-03-23T15:19:46.181Z</time>
      </trkpt>
      <trkpt lat="44.17074" lon="0.79188">
        <ele>151.3</ele>
        <time>2025-03-23T15:19:54.181Z</time>
      </trkpt>
      <trkpt lat="44.17082" lon="0.79188">
        <ele>150</ele>
        <time>2025-03-23T15:20:02.181Z</time>
      </trkpt>
      <trkpt lat="44.1709" lon="0.7918">
        <ele>148.8</ele>
        <time>2025-03-23T15:20:10.181Z</time>
      </trkpt>
      <trkpt lat="44.17096" lon="0.79171">
        <ele>147.9</ele>
        <time>2025-03-23T15:20:18.181Z</time>
      </trkpt>
      <trkpt lat="44.17111" lon="0.79158">
        <ele>145</ele>
        <time>2025-03-23T15:20:34.181Z</time>
      </trkpt>
      <trkpt lat="44.17138" lon="0.79145">
        <ele>139.6</ele>
        <time>2025-03-23T15:21:14.181Z</time>
      </trkpt>
      <trkpt lat="44.1715" lon="0.79132">
        <ele>137.8</ele>
        <time>2025-03-23T15:21:30.181Z</time>
      </trkpt>
      <trkpt lat="44.17155" lon="0.79123">
        <ele>137.4</ele>
        <time>2025-03-23T15:21:38.181Z</time>
      </trkpt>
      <trkpt lat="44.17162" lon="0.79101">
        <ele>138.4</ele>
        <time>2025-03-23T15:22:10.181Z</time>
      </trkpt>
      <trkpt lat="44.17163" lon="0.791">
        <ele>138.2</ele>
        <time>2025-03-23T15:22:26.181Z</time>
      </trkpt>
      <trkpt lat="44.17172" lon="0.79104">
        <ele>134.8</ele>
        <time>2025-03-23T15:22:42.181Z</time>
      </trkpt>
      <trkpt lat="44.17201" lon="0.79109">
        <ele>127.2</ele>
        <time>2025-03-23T15:23:02.181Z</time>
      </trkpt>
      <trkpt lat="44.17209" lon="0.79111">
        <ele>125.9</ele>
        <time>2025-03-23T15:23:10.181Z</time>
      </trkpt>
      <trkpt lat="44.17212" lon="0.79116">
        <ele>125.5</ele>
        <time>2025-03-23T15:23:18.181Z</time>
      </trkpt>
      <trkpt lat="44.17215" lon="0.7912">
        <ele>125.3</ele>
        <time>2025-03-23T15:23:38.181Z</time>
      </trkpt>
      <trkpt lat="44.17232" lon="0.79133">
        <ele>123.7</ele>
        <time>2025-03-23T15:23:54.181Z</time>
      </trkpt>
      <trkpt lat="44.17263" lon="0.79154">
        <ele>119.1</ele>
        <time>2025-03-23T15:24:26.181Z</time>
      </trkpt>
      <trkpt lat="44.17303" lon="0.79176">
        <ele>110.6</ele>
        <time>2025-03-23T15:25:14.181Z</time>
      </trkpt>
      <trkpt lat="44.17307" lon="0.79176">
        <ele>110</ele>
        <time>2025-03-23T15:25:18.181Z</time>
      </trkpt>
      <trkpt lat="44.17313" lon="0.79181">
        <ele>109.9</ele>
        <time>2025-03-23T15:25:26.181Z</time>
      </trkpt>
      <trkpt lat="44.17322" lon="0.79183">
        <ele>109.8</ele>
        <time>2025-03-23T15:25:34.181Z</time>
      </trkpt>
      <trkpt lat="44.17331" lon="0.79195">
        <ele>110.1</ele>
        <time>2025-03-23T15:25:46.181Z</time>
      </trkpt>
      <trkpt lat="44.17333" lon="0.79201">
        <ele>110.5</ele>
        <time>2025-03-23T15:25:50.181Z</time>
      </trkpt>
      <trkpt lat="44.1734" lon="0.79206">
        <ele>112.5</ele>
        <time>2025-03-23T15:25:58.181Z</time>
      </trkpt>
      <trkpt lat="44.17342" lon="0.79215">
        <ele>113.7</ele>
        <time>2025-03-23T15:26:06.181Z</time>
      </trkpt>
      <trkpt lat="44.17346" lon="0.7922">
        <ele>115.3</ele>
        <time>2025-03-23T15:26:14.181Z</time>
      </trkpt>
      <trkpt lat="44.17351" lon="0.79242">
        <ele>120</ele>
        <time>2025-03-23T15:26:56.181Z</time>
      </trkpt>
      <trkpt lat="44.17356" lon="0.79228">
        <ele>119.4</ele>
        <time>2025-03-23T15:27:52.181Z</time>
      </trkpt>
      <trkpt lat="44.17363" lon="0.79221">
        <ele>120.4</ele>
        <time>2025-03-23T15:28:08.181Z</time>
      </trkpt>
      <trkpt lat="44.17373" lon="0.79215">
        <ele>123.8</ele>
        <time>2025-03-23T15:28:24.181Z</time>
      </trkpt>
      <trkpt lat="44.17375" lon="0.79211">
        <ele>124</ele>
        <time>2025-03-23T15:28:32.181Z</time>
      </trkpt>
      <trkpt lat="44.17383" lon="0.79205">
        <ele>125.8</ele>
        <time>2025-03-23T15:28:48.181Z</time>
      </trkpt>
      <trkpt lat="44.17386" lon="0.79199">
        <ele>126</ele>
        <time>2025-03-23T15:28:58.181Z</time>
      </trkpt>
      <trkpt lat="44.17389" lon="0.79198">
        <ele>126.7</ele>
        <time>2025-03-23T15:29:02.181Z</time>
      </trkpt>
      <trkpt lat="44.17396" lon="0.79194">
        <ele>128.4</ele>
        <time>2025-03-23T15:29:10.181Z</time>
      </trkpt>
      <trkpt lat="44.17411" lon="0.79182">
        <ele>131.2</ele>
        <time>2025-03-23T15:29:30.181Z</time>
      </trkpt>
      <trkpt lat="44.17411" lon="0.79178">
        <ele>130.9</ele>
        <time>2025-03-23T15:29:34.181Z</time>
      </trkpt>
      <trkpt lat="44.17416" lon="0.79176">
        <ele>132.2</ele>
        <time>2025-03-23T15:29:42.181Z</time>
      </trkpt>
      <trkpt lat="44.17419" lon="0.79172">
        <ele>132.7</ele>
        <time>2025-03-23T15:29:50.181Z</time>
      </trkpt>
      <trkpt lat="44.17428" lon="0.79161">
        <ele>135.9</ele>
        <time>2025-03-23T15:30:14.181Z</time>
      </trkpt>
      <trkpt lat="44.17437" lon="0.79152">
        <ele>139</ele>
        <time>2025-03-23T15:30:46.181Z</time>
      </trkpt>
      <trkpt lat="44.17447" lon="0.7914">
        <ele>142</ele>
        <time>2025-03-23T15:31:10.181Z</time>
      </trkpt>
      <trkpt lat="44.17449" lon="0.79134">
        <ele>142.6</ele>
        <time>2025-03-23T15:31:18.181Z</time>
      </trkpt>
      <trkpt lat="44.17453" lon="0.7913">
        <ele>144.5</ele>
        <time>2025-03-23T15:31:26.181Z</time>
      </trkpt>
      <trkpt lat="44.17458" lon="0.7913">
        <ele>146.4</ele>
        <time>2025-03-23T15:31:30.181Z</time>
      </trkpt>
      <trkpt lat="44.1746" lon="0.79133">
        <ele>147.4</ele>
        <time>2025-03-23T15:31:34.181Z</time>
      </trkpt>
      <trkpt lat="44.17461" lon="0.79138">
        <ele>148</ele>
        <time>2025-03-23T15:31:38.181Z</time>
      </trkpt>
      <trkpt lat="44.17463" lon="0.79143">
        <ele>149.5</ele>
        <time>2025-03-23T15:31:44.181Z</time>
      </trkpt>
      <trkpt lat="44.17467" lon="0.79148">
        <ele>151.3</ele>
        <time>2025-03-23T15:31:50.181Z</time>
      </trkpt>
      <trkpt lat="44.17467" lon="0.79155">
        <ele>151.9</ele>
        <time>2025-03-23T15:31:58.182Z</time>
      </trkpt>
      <trkpt lat="44.17465" lon="0.79162">
        <ele>151.6</ele>
        <time>2025-03-23T15:32:06.181Z</time>
      </trkpt>
      <trkpt lat="44.17466" lon="0.79175">
        <ele>153</ele>
        <time>2025-03-23T15:32:18.181Z</time>
      </trkpt>
      <trkpt lat="44.17471" lon="0.79183">
        <ele>154.6</ele>
        <time>2025-03-23T15:32:54.181Z</time>
      </trkpt>
      <trkpt lat="44.17472" lon="0.79185">
        <ele>154.9</ele>
        <time>2025-03-23T15:34:14.181Z</time>
      </trkpt>
      <trkpt lat="44.17473" lon="0.7919">
        <ele>155</ele>
        <time>2025-03-23T15:34:46.181Z</time>
      </trkpt>
      <trkpt lat="44.17485" lon="0.79193">
        <ele>155</ele>
        <time>2025-03-23T15:35:34.181Z</time>
      </trkpt>
      <trkpt lat="44.17489" lon="0.79197">
        <ele>155.1</ele>
        <time>2025-03-23T15:35:38.181Z</time>
      </trkpt>
      <trkpt lat="44.17505" lon="0.79205">
        <ele>155.2</ele>
        <time>2025-03-23T15:35:54.181Z</time>
      </trkpt>
      <trkpt lat="44.17524" lon="0.79208">
        <ele>154.6</ele>
        <time>2025-03-23T15:36:10.181Z</time>
      </trkpt>
      <trkpt lat="44.17534" lon="0.79207">
        <ele>153.3</ele>
        <time>2025-03-23T15:36:26.181Z</time>
      </trkpt>
      <trkpt lat="44.17541" lon="0.79204">
        <ele>151.7</ele>
        <time>2025-03-23T15:36:30.181Z</time>
      </trkpt>
      <trkpt lat="44.17545" lon="0.79203">
        <ele>150.8</ele>
        <time>2025-03-23T15:36:34.181Z</time>
      </trkpt>
      <trkpt lat="44.17555" lon="0.79208">
        <ele>149.1</ele>
        <time>2025-03-23T15:36:46.181Z</time>
      </trkpt>
      <trkpt lat="44.17571" lon="0.79206">
        <ele>146.4</ele>
        <time>2025-03-23T15:37:02.181Z</time>
      </trkpt>
      <trkpt lat="44.17585" lon="0.79207">
        <ele>144.1</ele>
        <time>2025-03-23T15:37:18.181Z</time>
      </trkpt>
      <trkpt lat="44.17595" lon="0.79213">
        <ele>143.4</ele>
        <time>2025-03-23T15:37:26.181Z</time>
      </trkpt>
      <trkpt lat="44.17602" lon="0.7922">
        <ele>143.6</ele>
        <time>2025-03-23T15:37:32.181Z</time>
      </trkpt>
      <trkpt lat="44.1761" lon="0.79231">
        <ele>144.4</ele>
        <time>2025-03-23T15:37:40.181Z</time>
      </trkpt>
      <trkpt lat="44.17618" lon="0.79239">
        <ele>145.7</ele>
        <time>2025-03-23T15:37:48.181Z</time>
      </trkpt>
      <trkpt lat="44.17621" lon="0.79241">
        <ele>146.2</ele>
        <time>2025-03-23T15:37:52.181Z</time>
      </trkpt>
      <trkpt lat="44.17636" lon="0.79243">
        <ele>147.5</ele>
        <time>2025-03-23T15:38:04.181Z</time>
      </trkpt>
      <trkpt lat="44.17691" lon="0.79232">
        <ele>148</ele>
        <time>2025-03-23T15:38:52.181Z</time>
      </trkpt>
      <trkpt lat="44.17707" lon="0.79234">
        <ele>147.7</ele>
        <time>2025-03-23T15:39:06.181Z</time>
      </trkpt>
      <trkpt lat="44.1771" lon="0.79237">
        <ele>148.1</ele>
        <time>2025-03-23T15:39:10.181Z</time>
      </trkpt>
      <trkpt lat="44.17715" lon="0.79238">
        <ele>147.9</ele>
        <time>2025-03-23T15:39:14.181Z</time>
      </trkpt>
      <trkpt lat="44.17745" lon="0.79193">
        <ele>144.1</ele>
        <time>2025-03-23T15:39:58.181Z</time>
      </trkpt>
      <trkpt lat="44.17748" lon="0.79182">
        <ele>143.4</ele>
        <time>2025-03-23T15:40:06.181Z</time>
      </trkpt>
      <trkpt lat="44.17765" lon="0.79154">
        <ele>142.5</ele>
        <time>2025-03-23T15:40:30.181Z</time>
      </trkpt>
      <trkpt lat="44.17771" lon="0.79147">
        <ele>143.1</ele>
        <time>2025-03-23T15:40:38.181Z</time>
      </trkpt>
      <trkpt lat="44.1782" lon="0.79135">
        <ele>143.3</ele>
        <time>2025-03-23T15:41:42.181Z</time>
      </trkpt>
      <trkpt lat="44.17825" lon="0.79132">
        <ele>143.2</ele>
        <time>2025-03-23T15:41:58.181Z</time>
      </trkpt>
      <trkpt lat="44.17878" lon="0.79122">
        <ele>141.2</ele>
        <time>2025-03-23T15:42:46.181Z</time>
      </trkpt>
      <trkpt lat="44.17894" lon="0.79116">
        <ele>140.3</ele>
        <time>2025-03-23T15:43:02.181Z</time>
      </trkpt>
      <trkpt lat="44.17925" lon="0.79097">
        <ele>137.1</ele>
        <time>2025-03-23T15:43:34.181Z</time>
      </trkpt>
      <trkpt lat="44.17937" lon="0.79085">
        <ele>135.2</ele>
        <time>2025-03-23T15:43:50.181Z</time>
      </trkpt>
      <trkpt lat="44.17979" lon="0.79078">
        <ele>130.7</ele>
        <time>2025-03-23T15:44:30.181Z</time>
      </trkpt>
      <trkpt lat="44.17986" lon="0.79081">
        <ele>130.1</ele>
        <time>2025-03-23T15:44:38.181Z</time>
      </trkpt>
      <trkpt lat="44.17997" lon="0.7908">
        <ele>129.4</ele>
        <time>2025-03-23T15:44:46.181Z</time>
      </trkpt>
      <trkpt lat="44.18007" lon="0.79083">
        <ele>128</ele>
        <time>2025-03-23T15:44:54.181Z</time>
      </trkpt>
      <trkpt lat="44.1804" lon="0.79102">
        <ele>123.1</ele>
        <time>2025-03-23T15:45:26.181Z</time>
      </trkpt>
      <trkpt lat="44.18053" lon="0.79108">
        <ele>120.8</ele>
        <time>2025-03-23T15:45:38.181Z</time>
      </trkpt>
      <trkpt lat="44.18059" lon="0.79109">
        <ele>119.5</ele>
        <time>2025-03-23T15:45:46.181Z</time>
      </trkpt>
      <trkpt lat="44.18064" lon="0.7911">
        <ele>118.5</ele>
        <time>2025-03-23T15:45:52.181Z</time>
      </trkpt>
      <trkpt lat="44.18078" lon="0.79114">
        <ele>116.1</ele>
        <time>2025-03-23T15:46:08.181Z</time>
      </trkpt>
      <trkpt lat="44.18095" lon="0.79108">
        <ele>114.3</ele>
        <time>2025-03-23T15:46:24.181Z</time>
      </trkpt>
      <trkpt lat="44.18115" lon="0.79093">
        <ele>112</ele>
        <time>2025-03-23T15:46:44.181Z</time>
      </trkpt>
      <trkpt lat="44.18155" lon="0.79055">
        <ele>105.7</ele>
        <time>2025-03-23T15:47:24.181Z</time>
      </trkpt>
      <trkpt lat="44.18161" lon="0.79047">
        <ele>104.2</ele>
        <time>2025-03-23T15:47:32.181Z</time>
      </trkpt>
      <trkpt lat="44.1821" lon="0.79009">
        <ele>98.1</ele>
        <time>2025-03-23T15:48:20.181Z</time>
      </trkpt>
      <trkpt lat="44.1822" lon="0.78999">
        <ele>96</ele>
        <time>2025-03-23T15:48:28.181Z</time>
      </trkpt>
      <trkpt lat="44.18224" lon="0.78997">
        <ele>95.9</ele>
        <time>2025-03-23T15:48:32.181Z</time>
      </trkpt>
      <trkpt lat="44.18253" lon="0.78967">
        <ele>92.9</ele>
        <time>2025-03-23T15:49:04.181Z</time>
      </trkpt>
      <trkpt lat="44.18261" lon="0.78958">
        <ele>92.3</ele>
        <time>2025-03-23T15:49:12.181Z</time>
      </trkpt>
      <trkpt lat="44.1827" lon="0.78952">
        <ele>91.6</ele>
        <time>2025-03-23T15:49:20.181Z</time>
      </trkpt>
      <trkpt lat="44.18276" lon="0.78943">
        <ele>90</ele>
        <time>2025-03-23T15:49:28.181Z</time>
      </trkpt>
      <trkpt lat="44.18291" lon="0.78931">
        <ele>89.3</ele>
        <time>2025-03-23T15:49:44.181Z</time>
      </trkpt>
      <trkpt lat="44.18298" lon="0.78922">
        <ele>88.1</ele>
        <time>2025-03-23T15:49:52.181Z</time>
      </trkpt>
      <trkpt lat="44.18303" lon="0.78919">
        <ele>87.4</ele>
        <time>2025-03-23T15:49:56.181Z</time>
      </trkpt>
      <trkpt lat="44.18327" lon="0.78896">
        <ele>85.1</ele>
        <time>2025-03-23T15:50:20.181Z</time>
      </trkpt>
      <trkpt lat="44.18333" lon="0.78887">
        <ele>84</ele>
        <time>2025-03-23T15:50:28.181Z</time>
      </trkpt>
      <trkpt lat="44.1835" lon="0.7888">
        <ele>81.8</ele>
        <time>2025-03-23T15:50:44.181Z</time>
      </trkpt>
      <trkpt lat="44.18363" lon="0.78868">
        <ele>80.5</ele>
        <time>2025-03-23T15:51:00.181Z</time>
      </trkpt>
      <trkpt lat="44.18378" lon="0.78857">
        <ele>77.9</ele>
        <time>2025-03-23T15:51:16.181Z</time>
      </trkpt>
      <trkpt lat="44.18388" lon="0.78856">
        <ele>76.2</ele>
        <time>2025-03-23T15:51:24.181Z</time>
      </trkpt>
      <trkpt lat="44.18418" lon="0.78855">
        <ele>74.1</ele>
        <time>2025-03-23T15:52:20.181Z</time>
      </trkpt>
      <trkpt lat="44.18436" lon="0.78855">
        <ele>73.4</ele>
        <time>2025-03-23T15:52:36.181Z</time>
      </trkpt>
      <trkpt lat="44.1844" lon="0.78857">
        <ele>73.2</ele>
        <time>2025-03-23T15:52:40.181Z</time>
      </trkpt>
      <trkpt lat="44.1846" lon="0.78859">
        <ele>72.4</ele>
        <time>2025-03-23T15:52:56.181Z</time>
      </trkpt>
      <trkpt lat="44.18477" lon="0.78871">
        <ele>72.7</ele>
        <time>2025-03-23T15:53:06.181Z</time>
      </trkpt>
    </trkseg>
  </trk>
</gpx>